Time;durP1;ratioP1;P1;durP2;ratioP2;P2;SDS_P1;SDS_P2;PMS_P1;PMS_P2;Temp;Humidity;BMP_temperature;BMP_pressure;BME280_temperature;BME280_humidity;BME280_pressure;Samples;Min_cycle;Max_cycle;Signal;HPM_P1;HPM_P2
2021/05/05 00:59:44;;;;;;;0.70;0.70;;;8.00;99.90;;;;;;5655763;23;21422;-81
2021/05/05 01:08:07;;;;;;;0.77;0.77;;;8.10;99.90;;;;;;5124366;23;20437;-81
2021/05/05 01:10:53;;;;;;;0.95;0.82;;;8.20;99.90;;;;;;4910780;29;20429;-80
2021/05/05 01:13:53;;;;;;;0.90;0.80;;;8.20;99.90;;;;;;4926764;29;20479;-80
2021/05/05 01:17:09;;;;;;;0.70;0.68;;;8.20;99.90;;;;;;4902545;28;20409;-81
2021/05/05 01:19:58;;;;;;;0.85;0.85;;;8.00;99.90;;;;;;4908675;29;20417;-80
2021/05/05 01:22:49;;;;;;;0.80;0.80;;;8.20;99.90;;;;;;4897716;28;20520;-81
2021/05/05 01:25:43;;;;;;;0.70;0.70;;;8.20;99.90;;;;;;4892494;29;20419;-80
2021/05/05 01:28:57;;;;;;;0.80;0.80;;;8.20;99.90;;;;;;4898859;29;20422;-80
2021/05/05 01:43:36;;;;;;;0.70;0.70;;;8.10;99.90;;;;;;5461544;23;20760;-83
2021/05/05 01:46:53;;;;;;;1.48;0.95;;;8.20;99.90;;;;;;4938374;28;20451;-83
2021/05/05 01:53:38;;;;;;;0.90;0.90;;;8.10;99.90;;;;;;4951262;29;20489;-82
2021/05/05 02:11:44;;;;;;;0.90;0.90;;;8.00;99.90;;;;;;6061240;23;21255;31
2021/05/05 02:14:12;;;;;;;1.40;0.80;;;8.10;99.90;;;;;;4924470;28;20419;-80
2021/05/05 02:17:13;;;;;;;1.30;0.90;;;8.10;99.90;;;;;;4948552;28;20467;-80
2021/05/05 02:19:39;;;;;;;0.90;0.90;;;8.20;99.90;;;;;;4930290;28;20766;-80
2021/05/05 02:22:05;;;;;;;0.90;0.90;;;8.10;99.90;;;;;;4938852;28;20392;-80
2021/05/05 02:24:32;;;;;;;0.80;0.80;;;8.10;99.90;;;;;;4942941;28;20460;-79
2021/05/05 02:26:58;;;;;;;1.60;1.00;;;8.10;99.90;;;;;;4948068;28;20473;-78
2021/05/05 02:29:25;;;;;;;1.15;1.00;;;8.00;99.90;;;;;;4931839;28;20408;-82
2021/05/05 02:32:01;;;;;;;1.45;0.90;;;8.00;99.90;;;;;;4957690;28;20414;-82
2021/05/05 02:34:27;;;;;;;1.00;1.00;;;8.00;99.90;;;;;;4942374;28;20478;-81
2021/05/05 02:36:53;;;;;;;0.95;0.95;;;8.00;99.90;;;;;;4929518;28;20496;-81
2021/05/05 02:39:20;;;;;;;1.00;1.00;;;8.00;99.90;;;;;;4897130;28;20432;-79
2021/05/05 02:41:47;;;;;;;1.95;1.05;;;8.00;99.90;;;;;;4938410;28;20526;-80
2021/05/05 02:44:14;;;;;;;2.03;1.20;;;8.10;99.90;;;;;;4937830;28;20420;-80
2021/05/05 02:46:46;;;;;;;1.00;1.00;;;8.10;99.90;;;;;;4947632;23;20414;-80
2021/05/05 02:49:15;;;;;;;1.20;1.00;;;8.00;99.90;;;;;;4899092;29;20493;-79
2021/05/05 02:51:41;;;;;;;1.10;1.00;;;8.10;99.90;;;;;;4888430;29;20410;-79
2021/05/05 02:54:08;;;;;;;1.38;1.00;;;8.10;99.90;;;;;;4882995;29;20398;-80
2021/05/05 02:56:34;;;;;;;1.27;1.02;;;8.10;99.90;;;;;;4885756;29;20780;-78
2021/05/05 02:59:00;;;;;;;0.80;0.80;;;8.00;99.90;;;;;;4884779;29;20427;-80
2021/05/05 03:01:26;;;;;;;0.90;0.90;;;8.10;99.90;;;;;;4881450;29;20498;-77
2021/05/05 03:03:51;;;;;;;1.23;1.13;;;8.10;99.90;;;;;;4912386;29;20414;-79
2021/05/05 03:06:17;;;;;;;0.98;0.98;;;8.20;99.90;;;;;;4891790;29;20435;-79
2021/05/05 03:08:43;;;;;;;0.88;0.88;;;8.10;99.90;;;;;;4880608;29;20423;-79
2021/05/05 03:11:08;;;;;;;1.03;1.00;;;8.00;99.90;;;;;;4896942;29;20435;-80
2021/05/05 03:13:34;;;;;;;1.05;0.90;;;8.00;99.90;;;;;;4874592;29;20414;-80
2021/05/05 03:16:00;;;;;;;1.00;1.00;;;8.00;99.90;;;;;;4882069;29;20774;-80
2021/05/05 03:18:26;;;;;;;1.45;1.00;;;8.00;99.90;;;;;;4867404;29;20415;-80
2021/05/05 03:20:58;;;;;;;1.45;1.20;;;8.00;99.90;;;;;;4870916;29;20499;-79
2021/05/05 03:23:23;;;;;;;1.20;1.00;;;8.00;99.90;;;;;;4901437;29;20411;-78
2021/05/05 03:25:49;;;;;;;1.00;1.00;;;8.00;99.90;;;;;;4886861;29;20515;-80
2021/05/05 03:28:17;;;;;;;1.10;1.10;;;8.00;99.90;;;;;;4874528;29;20405;-80
2021/05/05 03:30:43;;;;;;;1.30;1.20;;;8.00;99.90;;;;;;4892984;29;20557;-80
2021/05/05 03:33:09;;;;;;;1.55;1.30;;;8.00;99.90;;;;;;4879858;29;20431;-79
2021/05/05 03:35:43;;;;;;;2.13;1.60;;;7.90;99.90;;;;;;4884801;29;20427;-80
2021/05/05 03:38:13;;;;;;;3.08;2.03;;;8.10;99.90;;;;;;4898719;29;20387;-79
2021/05/05 03:40:39;;;;;;;1.50;1.40;;;7.90;99.90;;;;;;4884721;29;20413;-80
2021/05/05 03:43:13;;;;;;;1.98;1.50;;;7.90;99.90;;;;;;4897760;29;20423;-80
2021/05/05 03:45:39;;;;;;;2.05;1.25;;;8.00;99.90;;;;;;4916195;29;20399;-80
2021/05/05 03:48:05;;;;;;;1.33;1.30;;;7.90;99.90;;;;;;4887560;29;20411;-79
2021/05/05 03:50:31;;;;;;;1.15;1.15;;;8.00;99.90;;;;;;4899445;29;20435;-81
2021/05/05 03:52:57;;;;;;;3.65;1.90;;;8.00;99.90;;;;;;4882805;29;20769;-80
2021/05/05 03:55:28;;;;;;;2.30;1.13;;;7.90;99.90;;;;;;4868474;29;20408;-80
2021/05/05 04:00:42;;;;;;;1.45;1.35;;;8.00;99.90;;;;;;4927072;29;20451;-80
2021/05/05 04:03:08;;;;;;;1.20;1.10;;;7.90;99.90;;;;;;4888926;29;20924;-81
2021/05/05 04:05:34;;;;;;;1.45;1.20;;;8.00;99.90;;;;;;4914814;29;20389;-78
2021/05/05 04:08:00;;;;;;;1.20;1.10;;;8.00;99.90;;;;;;4901787;29;20502;-78
2021/05/05 04:10:26;;;;;;;1.60;1.13;;;8.20;99.90;;;;;;4879964;29;20439;-79
2021/05/05 04:12:52;;;;;;;1.83;1.07;;;8.20;99.90;;;;;;4892979;29;20491;-78
2021/05/05 04:15:18;;;;;;;2.80;1.10;;;8.20;99.90;;;;;;4894167;29;20429;-80
2021/05/05 04:17:43;;;;;;;1.15;1.08;;;8.20;99.90;;;;;;4867890;29;20399;-80
2021/05/05 04:20:10;;;;;;;1.40;1.30;;;8.30;99.90;;;;;;4884114;29;20407;-79
2021/05/05 04:22:35;;;;;;;1.17;1.08;;;8.20;99.90;;;;;;4889931;29;20393;-80
2021/05/05 04:25:01;;;;;;;1.65;1.30;;;8.20;99.90;;;;;;4932753;29;20470;-81
2021/05/05 04:27:27;;;;;;;2.10;1.50;;;8.20;99.90;;;;;;4900134;29;20401;-80
2021/05/05 04:29:53;;;;;;;1.33;1.23;;;8.20;99.90;;;;;;4883540;29;20465;-81
2021/05/05 04:32:18;;;;;;;1.00;0.95;;;8.30;99.90;;;;;;4876587;29;20430;-79
2021/05/05 04:34:44;;;;;;;0.98;0.98;;;8.30;99.90;;;;;;4908769;29;20407;-78
2021/05/05 04:37:10;;;;;;;0.90;0.90;;;8.30;99.90;;;;;;4888925;29;20439;-79
2021/05/05 04:39:36;;;;;;;1.13;1.10;;;8.20;99.90;;;;;;4901455;29;20411;-79
2021/05/05 04:42:04;;;;;;;3.23;1.70;;;8.30;99.90;;;;;;4903880;29;20423;-80
2021/05/05 04:44:30;;;;;;;1.33;1.23;;;8.30;99.90;;;;;;4886214;29;20419;-80
2021/05/05 04:46:57;;;;;;;1.02;1.02;;;8.30;99.90;;;;;;4899004;29;20444;-80
2021/05/05 04:49:26;;;;;;;1.17;1.08;;;8.40;99.90;;;;;;4888310;29;20419;-80
2021/05/05 04:51:52;;;;;;;0.95;0.95;;;8.40;99.90;;;;;;4883113;29;20488;-80
2021/05/05 04:54:18;;;;;;;1.42;1.30;;;8.40;99.90;;;;;;4871172;29;20925;-79
2021/05/05 04:56:44;;;;;;;1.30;1.20;;;8.50;99.90;;;;;;4883787;29;20415;-78
2021/05/05 04:59:10;;;;;;;2.83;1.13;;;8.50;99.90;;;;;;4914359;29;20435;-78
2021/05/05 05:01:36;;;;;;;2.90;1.10;;;8.60;99.90;;;;;;4904625;29;20951;-78
2021/05/05 05:04:02;;;;;;;1.10;1.00;;;8.60;99.90;;;;;;4905424;29;20407;-78
2021/05/05 05:06:28;;;;;;;1.10;1.10;;;8.70;99.90;;;;;;4917135;29;22299;-78
2021/05/05 05:08:54;;;;;;;1.07;1.07;;;8.70;99.90;;;;;;4886642;29;20977;-76
2021/05/05 05:11:19;;;;;;;0.90;0.90;;;8.80;99.90;;;;;;4893207;29;20452;-76
2021/05/05 05:13:45;;;;;;;1.63;1.27;;;8.90;99.90;;;;;;4913324;29;20484;-78
2021/05/05 05:16:11;;;;;;;0.97;0.97;;;9.10;99.90;;;;;;4894262;29;20504;-77
2021/05/05 05:18:36;;;;;;;0.90;0.90;;;9.20;99.90;;;;;;4892689;29;20408;-77
2021/05/05 05:21:03;;;;;;;1.30;1.20;;;9.20;99.90;;;;;;4898952;29;20425;-78
2021/05/05 05:23:28;;;;;;;3.30;1.17;;;9.40;99.90;;;;;;4899002;29;20412;-76
2021/05/05 05:25:54;;;;;;;1.43;1.00;;;9.50;99.90;;;;;;4889067;29;21048;-79
2021/05/05 05:28:20;;;;;;;1.10;1.08;;;9.50;99.90;;;;;;4883762;29;20400;-76
2021/05/05 05:30:46;;;;;;;1.40;1.30;;;9.50;99.90;;;;;;4883080;29;20486;-77
2021/05/05 05:33:11;;;;;;;1.40;1.10;;;9.60;99.90;;;;;;4911107;29;20416;-76
2021/05/05 05:35:37;;;;;;;1.65;1.00;;;9.60;99.90;;;;;;4894311;29;20409;-77
2021/05/05 05:38:03;;;;;;;2.00;1.20;;;9.60;99.90;;;;;;4895324;29;20476;-78
2021/05/05 05:40:29;;;;;;;1.52;1.38;;;9.70;99.90;;;;;;4889101;29;20436;-77
2021/05/05 05:42:54;;;;;;;1.65;1.30;;;9.80;99.90;;;;;;4914105;29;20410;-76
2021/05/05 05:45:20;;;;;;;1.40;1.20;;;9.80;99.90;;;;;;4899075;29;20422;-76
2021/05/05 05:47:46;;;;;;;2.03;0.97;;;9.90;99.90;;;;;;4881822;29;20400;-78
2021/05/05 05:50:12;;;;;;;1.45;1.17;;;10.00;99.90;;;;;;4900006;29;20407;-77
2021/05/05 05:52:38;;;;;;;0.90;0.90;;;10.00;99.90;;;;;;4884199;29;20403;-77
2021/05/05 05:55:04;;;;;;;1.20;1.10;;;10.00;99.90;;;;;;4882554;29;20405;-77
2021/05/05 05:57:30;;;;;;;1.90;1.10;;;10.10;99.90;;;;;;4878666;29;20971;-77
2021/05/05 05:59:56;;;;;;;1.20;1.10;;;10.10;99.90;;;;;;4901291;29;20502;-76
2021/05/05 06:02:21;;;;;;;1.50;1.20;;;10.10;99.90;;;;;;4912041;29;20470;-77
2021/05/05 06:04:47;;;;;;;1.05;0.98;;;10.10;99.90;;;;;;4898177;29;21108;-77
2021/05/05 06:07:13;;;;;;;1.30;1.20;;;10.10;99.90;;;;;;4897667;29;20384;-77
2021/05/05 06:09:39;;;;;;;1.13;1.07;;;10.10;99.90;;;;;;4891407;29;20402;-75
2021/05/05 06:12:05;;;;;;;1.20;1.10;;;10.10;99.90;;;;;;4902813;29;20507;-77
2021/05/05 06:14:31;;;;;;;2.20;1.10;;;10.10;99.90;;;;;;4897796;29;20835;-76
2021/05/05 06:16:57;;;;;;;1.73;1.33;;;10.10;99.90;;;;;;4899657;29;20476;-77
2021/05/05 06:19:23;;;;;;;1.08;1.08;;;10.00;99.90;;;;;;4892920;29;20758;-78
2021/05/05 06:21:48;;;;;;;1.00;1.00;;;10.00;99.90;;;;;;4884761;29;20802;-77
2021/05/05 06:24:14;;;;;;;1.20;1.08;;;10.00;99.90;;;;;;4894863;29;20483;-77
2021/05/05 06:26:40;;;;;;;1.30;1.20;;;10.00;99.90;;;;;;4893774;29;20437;-77
2021/05/05 06:29:05;;;;;;;1.63;1.30;;;9.90;99.90;;;;;;4895462;29;20447;-76
2021/05/05 06:31:31;;;;;;;1.35;1.10;;;10.10;99.90;;;;;;4891846;29;20427;-78
2021/05/05 06:33:57;;;;;;;1.27;1.17;;;10.10;99.90;;;;;;4875173;29;20485;-78
2021/05/05 06:36:23;;;;;;;1.17;1.10;;;10.20;99.90;;;;;;4885847;29;20401;-77
2021/05/05 06:38:48;;;;;;;1.10;1.10;;;10.20;99.90;;;;;;4895142;29;20435;-77
2021/05/05 06:41:14;;;;;;;1.90;1.20;;;10.20;99.90;;;;;;4871135;29;20447;-77
2021/05/05 06:43:39;;;;;;;1.25;1.15;;;10.20;99.90;;;;;;4886480;29;20400;-76
2021/05/05 06:46:05;;;;;;;1.30;1.20;;;10.40;99.90;;;;;;4896247;29;20903;-77
2021/05/05 06:48:31;;;;;;;1.20;1.10;;;10.50;99.90;;;;;;4880692;29;20401;-77
2021/05/05 06:50:57;;;;;;;1.23;1.13;;;10.50;99.90;;;;;;4897039;29;20920;-77
2021/05/05 06:53:22;;;;;;;1.30;1.20;;;10.60;99.90;;;;;;4889712;29;20413;-78
2021/05/05 06:55:48;;;;;;;2.00;1.20;;;10.70;99.90;;;;;;4884062;29;20424;-77
2021/05/05 06:58:14;;;;;;;1.13;1.10;;;10.70;99.90;;;;;;4886354;29;20400;-78
2021/05/05 07:00:39;;;;;;;2.00;1.83;;;10.60;99.90;;;;;;4878421;29;20415;-79
2021/05/05 07:03:05;;;;;;;1.57;1.47;;;10.40;99.90;;;;;;4918173;29;20835;-78
2021/05/05 07:05:31;;;;;;;1.25;1.15;;;10.30;99.90;;;;;;4896495;29;20450;-76
2021/05/05 07:07:57;;;;;;;1.90;1.50;;;10.50;99.90;;;;;;4912392;29;20457;-78
2021/05/05 07:10:22;;;;;;;1.30;1.10;;;10.70;99.90;;;;;;4895737;29;21055;-77
2021/05/05 07:12:48;;;;;;;2.53;1.37;;;10.70;99.90;;;;;;4914835;29;20455;-77
2021/05/05 07:15:14;;;;;;;2.65;2.20;;;10.70;99.90;;;;;;4896254;29;21126;-77
2021/05/05 07:17:40;;;;;;;1.30;1.20;;;10.80;99.90;;;;;;4875213;29;20448;-78
2021/05/05 07:20:06;;;;;;;1.13;1.00;;;10.90;99.90;;;;;;4895817;29;20410;-76
2021/05/05 07:22:32;;;;;;;1.20;1.10;;;11.00;99.90;;;;;;4912395;29;20412;-77
2021/05/05 07:24:57;;;;;;;1.50;1.40;;;11.20;99.90;;;;;;4910795;29;20404;-77
2021/05/05 07:27:23;;;;;;;1.60;1.20;;;11.20;99.90;;;;;;4912321;29;20763;-76
2021/05/05 07:29:49;;;;;;;1.40;1.30;;;11.00;99.90;;;;;;4872993;29;20448;-77
2021/05/05 07:32:15;;;;;;;1.30;1.20;;;10.90;99.90;;;;;;4880830;29;20445;-76
2021/05/05 07:34:41;;;;;;;3.10;1.40;;;11.00;99.90;;;;;;4876105;29;20401;-77
2021/05/05 07:37:11;;;;;;;1.58;1.30;;;11.10;99.90;;;;;;4895209;29;20969;-77
2021/05/05 07:40:11;;;;;;;1.30;1.20;;;11.20;99.90;;;;;;4885599;29;20797;-75
2021/05/05 07:43:12;;;;;;;1.00;1.00;;;11.40;99.90;;;;;;4882308;29;21098;-78
2021/05/05 07:46:05;;;;;;;2.58;1.35;;;11.40;99.90;;;;;;4892962;29;20783;-78
2021/05/05 07:48:07;;;;;;;1.73;1.30;;;11.40;99.90;;;;;;4899105;29;20411;-77
2021/05/05 07:50:33;;;;;;;2.33;1.10;;;11.50;99.90;;;;;;4913225;29;20476;-77
2021/05/05 07:53:00;;;;;;;1.73;1.20;;;12.00;99.90;;;;;;4879544;29;21283;-76
2021/05/05 07:55:26;;;;;;;1.23;1.15;;;12.30;99.90;;;;;;4889639;29;20410;-77
2021/05/05 07:57:51;;;;;;;1.42;1.10;;;12.50;99.90;;;;;;4885416;29;20402;-77
2021/05/05 08:00:18;;;;;;;3.07;1.30;;;12.60;99.90;;;;;;4895434;29;20426;-77
2021/05/05 08:02:43;;;;;;;2.17;1.27;;;12.30;99.90;;;;;;4908329;29;20404;-77
2021/05/05 08:05:09;;;;;;;0.90;0.90;;;12.10;99.90;;;;;;4877117;29;20408;-77
2021/05/05 08:07:35;;;;;;;2.10;1.20;;;11.90;99.90;;;;;;4880293;29;20416;-77
2021/05/05 08:10:01;;;;;;;0.98;0.98;;;11.70;99.90;;;;;;4875270;29;20565;-77
2021/05/05 08:12:28;;;;;;;3.08;1.42;;;11.50;99.90;;;;;;4893581;29;20876;-77
2021/05/05 08:14:53;;;;;;;1.27;1.17;;;11.30;99.90;;;;;;4875630;29;20403;-76
2021/05/05 08:17:19;;;;;;;3.77;1.47;;;11.10;99.90;;;;;;4910930;29;20420;-77
2021/05/05 08:19:45;;;;;;;1.20;1.10;;;10.70;99.90;;;;;;4902438;29;20516;-78
2021/05/05 08:22:10;;;;;;;1.40;1.30;;;10.30;99.90;;;;;;4893479;29;20409;-79
2021/05/05 08:24:37;;;;;;;1.27;1.20;;;9.80;99.90;;;;;;4873751;29;20397;-77
2021/05/05 08:27:03;;;;;;;1.30;1.15;;;9.30;99.90;;;;;;4918570;29;21024;-76
2021/05/05 08:29:31;;;;;;;1.10;1.10;;;9.20;99.90;;;;;;4899054;29;20421;-77
2021/05/05 08:31:57;;;;;;;2.20;1.50;;;9.10;99.90;;;;;;4879551;29;20411;-77
2021/05/05 08:34:25;;;;;;;2.00;1.35;;;9.40;99.90;;;;;;4895408;29;20412;-78
2021/05/05 08:36:52;;;;;;;1.75;1.55;;;9.70;99.90;;;;;;4894503;29;20405;-78
2021/05/05 08:39:17;;;;;;;1.67;1.55;;;9.90;99.90;;;;;;4888660;29;20421;-77
2021/05/05 08:41:43;;;;;;;1.40;1.30;;;9.90;99.90;;;;;;4885375;29;20406;-77
2021/05/05 08:44:10;;;;;;;2.22;1.42;;;10.10;99.90;;;;;;4879737;29;21038;-77
2021/05/05 08:46:40;;;;;;;1.30;1.30;;;10.40;99.90;;;;;;4881643;29;20938;-76
2021/05/05 08:49:06;;;;;;;1.42;1.27;;;10.70;99.90;;;;;;4896123;29;20407;-77
2021/05/05 08:51:32;;;;;;;1.30;1.20;;;10.80;99.90;;;;;;4902180;29;20420;-78
2021/05/05 08:53:57;;;;;;;2.50;1.30;;;11.10;99.90;;;;;;4896028;29;20504;-77
2021/05/05 08:56:23;;;;;;;1.30;1.20;;;11.50;99.90;;;;;;4879255;29;20428;-78
2021/05/05 08:58:49;;;;;;;1.20;1.15;;;11.80;99.90;;;;;;4895973;29;20486;-77
2021/05/05 09:01:14;;;;;;;1.40;1.30;;;12.00;99.90;;;;;;4879080;29;20402;-77
2021/05/05 09:03:43;;;;;;;1.50;1.40;;;12.10;99.90;;;;;;4886686;29;20407;-78
2021/05/05 09:06:08;;;;;;;2.53;1.27;;;12.00;99.90;;;;;;4886553;29;20409;-78
2021/05/05 09:08:34;;;;;;;1.30;1.20;;;12.00;99.90;;;;;;4912074;29;20411;-78
2021/05/05 09:11:05;;;;;;;1.40;1.30;;;11.90;99.90;;;;;;4894804;29;20499;-79
2021/05/05 09:13:53;;;;;;;1.35;1.25;;;11.60;99.90;;;;;;4887193;29;20437;-78
2021/05/05 09:16:23;;;;;;;1.30;1.05;;;11.40;99.90;;;;;;4887080;29;20873;-79
2021/05/05 09:19:02;;;;;;;1.42;1.13;;;11.20;99.90;;;;;;4915265;29;20431;-80
2021/05/05 09:21:39;;;;;;;1.02;1.02;;;11.10;99.90;;;;;;4900996;29;20399;-78
2021/05/05 09:24:29;;;;;;;0.95;0.95;;;10.90;99.90;;;;;;4904906;29;20393;-79
2021/05/05 09:27:09;;;;;;;0.88;0.82;;;11.20;99.90;;;;;;4907844;29;20421;-80
2021/05/05 09:29:45;;;;;;;0.90;0.90;;;11.40;99.90;;;;;;4895176;29;20424;-79
2021/05/05 09:32:11;;;;;;;1.10;1.00;;;11.80;99.90;;;;;;4905764;29;20427;-79
2021/05/05 09:34:37;;;;;;;0.85;0.85;;;11.90;99.90;;;;;;4896753;29;20401;-79
2021/05/05 09:37:05;;;;;;;0.90;0.90;;;12.10;99.90;;;;;;4891295;29;20411;-80
2021/05/05 09:39:33;;;;;;;0.90;0.90;;;12.40;99.90;;;;;;4880399;29;20476;-81
2021/05/05 09:41:59;;;;;;;1.08;1.00;;;12.60;99.90;;;;;;4896424;29;20831;-78
2021/05/05 09:44:25;;;;;;;0.90;0.90;;;12.70;99.90;;;;;;4914359;29;20498;-78
2021/05/05 09:46:54;;;;;;;1.00;1.00;;;13.00;99.90;;;;;;4863970;29;20413;-78
2021/05/05 09:49:37;;;;;;;1.10;1.00;;;13.20;99.90;;;;;;4899085;29;20415;-78
2021/05/05 09:52:08;;;;;;;0.88;0.88;;;13.40;99.90;;;;;;4890440;29;20499;-78
2021/05/05 09:54:58;;;;;;;1.02;1.02;;;13.50;99.90;;;;;;4893588;29;20758;-79
2021/05/05 09:57:30;;;;;;;1.10;1.00;;;13.60;99.90;;;;;;4898207;29;20906;-78
2021/05/05 10:00:10;;;;;;;0.98;0.98;;;13.90;99.90;;;;;;4916231;29;20430;-77
2021/05/05 10:02:49;;;;;;;1.30;1.20;;;13.80;99.90;;;;;;4899692;29;20419;-78
2021/05/05 10:05:19;;;;;;;0.95;0.95;;;14.00;99.90;;;;;;4890202;29;21160;-78
2021/05/05 10:07:51;;;;;;;1.08;1.08;;;14.10;99.90;;;;;;4914755;29;20774;-78
2021/05/05 10:10:17;;;;;;;1.00;0.95;;;14.00;99.90;;;;;;4896347;29;20456;-77
2021/05/05 10:12:43;;;;;;;1.08;1.05;;;13.90;97.10;;;;;;4893941;29;20546;-77
2021/05/05 10:15:09;;;;;;;1.20;1.10;;;14.20;97.90;;;;;;4892247;29;20406;-76
2021/05/05 10:17:35;;;;;;;1.20;1.00;;;14.40;99.10;;;;;;4886114;29;20543;-78
2021/05/05 10:20:02;;;;;;;1.15;1.05;;;14.80;99.90;;;;;;4884799;29;20547;-77
2021/05/05 10:22:29;;;;;;;1.40;1.00;;;14.60;94.50;;;;;;4899579;29;20827;-78
2021/05/05 10:24:55;;;;;;;0.98;0.98;;;14.40;93.00;;;;;;4912083;29;20453;-76
2021/05/05 10:27:20;;;;;;;1.50;1.10;;;14.00;93.50;;;;;;4885014;29;20387;-77
2021/05/05 10:29:46;;;;;;;3.00;0.90;;;13.80;94.00;;;;;;4897155;29;20483;-78
2021/05/05 10:32:13;;;;;;;3.25;2.95;;;14.20;94.40;;;;;;4872725;29;20437;-77
2021/05/05 10:34:43;;;;;;;1.38;1.02;;;14.40;93.60;;;;;;4895840;29;20435;-76
2021/05/05 10:37:09;;;;;;;0.90;0.90;;;14.70;91.30;;;;;;4875550;29;20786;-78
2021/05/05 10:39:38;;;;;;;0.95;0.85;;;15.00;91.70;;;;;;4897945;29;20410;-77
2021/05/05 10:42:26;;;;;;;1.05;1.00;;;15.20;89.90;;;;;;4891080;29;20434;-79
2021/05/05 10:44:58;;;;;;;0.90;0.90;;;15.10;89.10;;;;;;4912204;29;20396;-77
2021/05/05 10:47:27;;;;;;;0.80;0.80;;;14.30;84.40;;;;;;4893456;29;20411;-77
2021/05/05 10:49:59;;;;;;;0.90;0.90;;;13.90;91.30;;;;;;4912819;29;20469;-77
2021/05/05 10:52:45;;;;;;;1.13;1.02;;;13.90;91.30;;;;;;4911075;29;20415;-77
2021/05/05 10:55:17;;;;;;;1.40;1.17;;;13.80;89.90;;;;;;4899099;29;20415;-77
2021/05/05 10:58:06;;;;;;;1.77;1.10;;;13.50;86.20;;;;;;4907194;29;20405;-79
2021/05/05 11:01:13;;;;;;;1.23;1.00;;;13.20;89.20;;;;;;4896897;29;20407;-77
2021/05/05 11:03:42;;;;;;;1.02;0.93;;;13.50;91.10;;;;;;4882729;29;20915;-78
2021/05/05 11:06:29;;;;;;;1.00;1.00;;;13.70;86.60;;;;;;4917605;29;20447;-78
2021/05/05 11:08:56;;;;;;;1.30;1.10;;;14.10;87.20;;;;;;4912191;29;20495;-76
2021/05/05 11:11:54;;;;;;;1.65;0.90;;;14.00;86.40;;;;;;4879511;29;20557;-78
2021/05/05 11:14:23;;;;;;;0.95;0.95;;;13.50;82.20;;;;;;4880306;29;20403;-77
2021/05/05 11:16:55;;;;;;;5.63;1.20;;;13.70;84.70;;;;;;4911859;29;20416;-77
2021/05/05 11:19:39;;;;;;;1.10;0.85;;;13.70;86.90;;;;;;4912058;29;20403;-76
2021/05/05 11:22:05;;;;;;;1.05;1.05;;;13.80;86.10;;;;;;4911545;29;20414;-78
2021/05/05 11:24:40;;;;;;;1.70;1.20;;;14.30;86.40;;;;;;4882584;29;20577;-78
2021/05/05 11:27:10;;;;;;;2.15;1.05;;;14.50;81.40;;;;;;4899620;29;20490;-80
2021/05/05 11:29:43;;;;;;;0.82;0.82;;;14.70;77.50;;;;;;4894089;29;20404;-78
2021/05/05 11:32:14;;;;;;;1.10;1.00;;;14.70;77.50;;;;;;4883467;29;20416;-78
2021/05/05 11:34:41;;;;;;;1.20;0.97;;;15.00;74.00;;;;;;4898007;29;20407;-77
2021/05/05 11:37:22;;;;;;;2.50;1.30;;;15.10;75.60;;;;;;4895944;29;20415;-79
2021/05/05 11:39:50;;;;;;;2.92;0.98;;;15.20;71.20;;;;;;4896440;29;20499;-77
2021/05/05 11:42:23;;;;;;;2.23;0.90;;;15.20;73.70;;;;;;4873528;29;20472;-78
2021/05/05 11:44:53;;;;;;;1.67;1.20;;;15.40;76.60;;;;;;4903751;29;20448;-78
2021/05/05 11:47:20;;;;;;;1.70;1.15;;;15.00;71.00;;;;;;4869034;29;20409;-78
2021/05/05 11:50:16;;;;;;;1.08;1.00;;;15.20;75.60;;;;;;4878331;29;20417;-77
2021/05/05 11:52:42;;;;;;;1.02;0.93;;;15.20;71.20;;;;;;4889523;29;20413;-78
2021/05/05 11:55:08;;;;;;;0.95;0.95;;;15.20;74.10;;;;;;4909928;29;20467;-78
2021/05/05 11:57:40;;;;;;;0.97;0.97;;;15.40;69.20;;;;;;4911871;29;20778;-77
2021/05/05 12:00:09;;;;;;;1.23;1.02;;;15.50;71.00;;;;;;4927654;29;20460;-77
2021/05/05 12:02:58;;;;;;;0.80;0.80;;;15.70;69.60;;;;;;4899562;29;21616;-78
2021/05/05 12:05:30;;;;;;;1.00;1.00;;;15.80;69.40;;;;;;4913984;29;20901;-79
2021/05/05 12:08:24;;;;;;;0.80;0.80;;;16.00;67.40;;;;;;4914584;29;20912;-77
2021/05/05 12:11:00;;;;;;;3.63;1.35;;;15.50;63.60;;;;;;4896998;29;20459;-77
2021/05/05 12:13:35;;;;;;;1.13;1.02;;;15.70;65.20;;;;;;4915221;29;20498;-77
2021/05/05 12:16:10;;;;;;;2.28;1.05;;;15.40;65.80;;;;;;4905798;29;20412;-78
2021/05/05 12:18:45;;;;;;;4.32;1.40;;;15.10;67.10;;;;;;4872565;29;20467;-77
2021/05/05 12:21:11;;;;;;;1.13;1.00;;;15.50;70.50;;;;;;4890989;29;20403;-76
2021/05/05 12:23:44;;;;;;;2.03;1.10;;;15.30;67.60;;;;;;4906991;29;20432;-80
2021/05/05 12:26:13;;;;;;;1.30;1.00;;;15.20;63.10;;;;;;4915150;29;20493;-77
2021/05/05 12:28:39;;;;;;;1.75;0.90;;;15.40;63.20;;;;;;4911529;29;20403;-78
2021/05/05 12:31:05;;;;;;;1.30;0.80;;;15.90;63.00;;;;;;4876314;29;20431;-78
2021/05/05 12:33:30;;;;;;;1.65;0.90;;;16.20;63.10;;;;;;4878611;29;20432;-79
2021/05/05 12:35:56;;;;;;;1.10;0.93;;;15.80;59.90;;;;;;4904878;29;20416;-77
2021/05/05 12:38:22;;;;;;;5.13;1.00;;;15.00;66.40;;;;;;4891046;29;20487;-77
2021/05/05 12:40:48;;;;;;;1.30;1.20;;;14.70;70.90;;;;;;4890380;29;20509;-75
2021/05/05 12:43:25;;;;;;;1.33;1.05;;;14.50;70.70;;;;;;4906953;29;20424;-79
2021/05/05 12:45:52;;;;;;;2.00;0.90;;;14.60;70.80;;;;;;4896481;29;20420;-77
2021/05/05 12:48:26;;;;;;;1.30;0.82;;;14.70;70.40;;;;;;4908221;29;20405;-76
2021/05/05 12:50:52;;;;;;;0.75;0.75;;;14.40;70.30;;;;;;4910280;29;20481;-79
2021/05/05 12:53:18;;;;;;;1.10;1.00;;;13.90;69.30;;;;;;4870283;29;20406;-78
2021/05/05 12:55:47;;;;;;;0.70;0.70;;;13.90;72.20;;;;;;4902959;29;20888;-78
2021/05/05 12:58:16;;;;;;;2.33;1.63;;;14.20;75.80;;;;;;4901764;29;20411;-77
2021/05/05 13:00:46;;;;;;;1.13;1.02;;;14.40;74.50;;;;;;4897670;29;20481;-79
2021/05/05 13:03:14;;;;;;;1.30;1.08;;;13.80;78.30;;;;;;4888905;29;20403;-78
2021/05/05 13:05:56;;;;;;;3.95;1.42;;;12.70;81.90;;;;;;4901942;29;20443;-77
2021/05/05 13:08:52;;;;;;;5.13;1.40;;;11.80;89.50;;;;;;4876326;29;20495;-79
2021/05/05 13:11:25;;;;;;;1.75;1.02;;;11.30;93.30;;;;;;4906160;29;20473;-80
2021/05/05 13:14:04;;;;;;;3.75;1.33;;;10.90;98.00;;;;;;4903010;29;20408;-76
2021/05/05 13:31:36;;;;;;;0.80;0.80;;;13.50;99.90;;;;;;4922617;29;20439;-75
2021/05/05 13:34:15;;;;;;;0.73;0.73;;;13.70;98.20;;;;;;4906315;29;20473;-77
2021/05/05 13:36:57;;;;;;;0.67;0.67;;;13.80;97.10;;;;;;4904930;29;20495;-78
2021/05/05 13:39:26;;;;;;;1.60;0.80;;;13.90;96.80;;;;;;4912597;29;20423;-77
2021/05/05 13:41:53;;;;;;;0.70;0.70;;;13.90;97.90;;;;;;4905087;29;20404;-77
2021/05/05 13:44:28;;;;;;;0.70;0.70;;;13.90;94.90;;;;;;4898087;29;20414;-77
2021/05/05 13:49:56;;;;;;;0.73;0.70;;;14.30;94.40;;;;;;4907382;29;20407;-76
2021/05/05 13:52:14;;;;;;;0.82;0.82;;;14.00;94.70;;;;;;4893575;29;20496;-77
2021/05/05 13:54:40;;;;;;;0.87;0.87;;;14.30;96.30;;;;;;4887835;29;20401;-77
2021/05/05 13:57:06;;;;;;;0.70;0.70;;;14.40;94.00;;;;;;4901748;29;20408;-77
2021/05/05 13:59:32;;;;;;;0.70;0.70;;;14.60;95.80;;;;;;4901700;29;20488;-77
2021/05/05 14:01:59;;;;;;;0.90;0.80;;;15.00;94.10;;;;;;4886052;29;20498;-77
2021/05/05 14:04:26;;;;;;;0.82;0.82;;;14.90;92.40;;;;;;4895913;29;20406;-77
2021/05/05 14:06:52;;;;;;;0.90;0.85;;;14.80;92.60;;;;;;4883696;29;20409;-76
2021/05/05 14:09:17;;;;;;;0.80;0.80;;;14.90;91.50;;;;;;4879005;29;20404;-76
2021/05/05 14:11:43;;;;;;;0.73;0.73;;;14.70;92.70;;;;;;4898214;29;20416;-76
2021/05/05 14:14:09;;;;;;;0.75;0.75;;;14.70;91.60;;;;;;4879252;29;21128;-77
2021/05/05 14:16:35;;;;;;;0.63;0.63;;;14.20;87.50;;;;;;4896905;29;20411;-77
2021/05/05 14:19:01;;;;;;;3.65;0.80;;;14.20;89.90;;;;;;4897884;29;20408;-77
2021/05/05 14:21:27;;;;;;;1.00;0.90;;;14.10;90.40;;;;;;4897762;29;20400;-77
2021/05/05 14:23:53;;;;;;;0.80;0.80;;;13.90;88.40;;;;;;4897457;29;20427;-77
2021/05/05 14:26:19;;;;;;;4.47;1.00;;;13.80;90.40;;;;;;4901743;29;20405;-78
2021/05/05 14:28:45;;;;;;;1.42;1.33;;;13.60;88.10;;;;;;4889744;29;20408;-77
2021/05/05 14:31:11;;;;;;;1.07;1.00;;;13.40;86.50;;;;;;4880721;29;20849;-77
2021/05/05 14:33:37;;;;;;;1.08;0.98;;;13.40;89.50;;;;;;4897632;29;20403;-78
2021/05/05 14:36:03;;;;;;;4.68;1.00;;;13.40;89.10;;;;;;4880829;29;20403;-77
2021/05/05 14:38:33;;;;;;;3.60;0.80;;;13.60;88.00;;;;;;4877602;29;20411;-77
2021/05/05 14:41:02;;;;;;;1.30;1.10;;;13.70;88.70;;;;;;4878387;29;20616;-77
2021/05/05 14:43:36;;;;;;;2.10;1.30;;;14.00;86.30;;;;;;4904089;29;20496;-78
2021/05/05 14:47:53;;;;;;;3.03;0.90;;;14.10;84.00;;;;;;4898211;29;20412;-77
2021/05/05 14:49:00;;;;;;;1.08;0.98;;;14.10;90.00;;;;;;4916731;29;20408;-77
2021/05/05 14:51:26;;;;;;;0.80;0.80;;;14.40;91.00;;;;;;4895826;29;21086;-77
2021/05/05 14:53:51;;;;;;;0.90;0.90;;;14.50;89.00;;;;;;4879661;29;20400;-77
2021/05/05 14:56:17;;;;;;;3.17;1.27;;;14.40;85.10;;;;;;4896804;29;20981;-77
2021/05/05 14:58:54;;;;;;;0.88;0.88;;;14.00;84.50;;;;;;4884548;29;20440;-78
2021/05/05 15:01:20;;;;;;;1.40;1.00;;;13.90;87.90;;;;;;4882555;29;20427;-77